Etusivu
METAR-TAF:

METAR-TAF

Lentoasemat :

Schoolcraft County Airport

Manistique, Michigan, Yhdysvallat

Leveyspiiri: 45-58-29N, Pituuspiiri: 086-10-19W, korkeus merenpinnasta: 209 m

Tämänhetkinen sää

Tämä raportti tehtiin 27 minuuttia sitten, kello 01.18 UTC
Tuuli 8 kn etelästä/kaakosta
Lämpötila 10°C
Kosteus 82%
Ilmanpaine 1013 hPa
Näkyvyys: 16.1 km
Hajonneita pilviä 2500 ft:n korkeudessa

METAR: KISQ 190118Z AUTO 15008KT 10SM BKN025 10/07 A2992 RMK AO2 T01020066

Aika: 21:45 (01:45 UTC)


TAF: puuttuu

Säähavainnot ja -ennusteet yli 4000 lentoasemalta (METAR- ja TAF-raportit).

Käytössä olevat sääasemat on merkitty karttaan keltaisilla ja punaisilla pisteillä.

Aseta hiiri pisteen päälle nähdäksesi sääaseman nimen.

Klikkaa sitten nähdäksesi säähavainnot ja -ennusteet.

Kartan vaihtaminen: klikkaa mustalla rastilla varustettuja vihreitä pisteitä, niin voit zoomata sisään; viivalla varustettua vihreää pistettä, niin voit zoomata ulos tai vihreitä nuolia, niin pääset viereisille kartoille.


METAR-TAF: